createdAt,value
2016-03-10T07:26:52.343Z,44224
2016-03-10T07:27:06.001Z,44448
2016-03-10T07:27:20.126Z,44704
2016-03-10T07:27:33.532Z,44928
2016-03-10T07:27:47.938Z,45088
2016-03-10T07:28:02.207Z,45152
2016-03-10T07:28:16.441Z,45120
2016-03-10T07:28:30.691Z,45056
2016-03-10T07:28:44.816Z,45056
2016-03-10T07:28:58.960Z,45056
2016-03-10T07:29:13.522Z,45152
2016-03-10T07:29:27.616Z,45280
2016-03-10T07:29:41.663Z,45376
2016-03-10T07:29:55.710Z,45600
2016-03-10T07:30:09.119Z,45792
2016-03-10T07:30:23.244Z,45920
2016-03-10T07:30:36.744Z,46048
2016-03-10T07:30:50.963Z,46176
2016-03-10T07:31:05.262Z,46272
2016-03-10T07:31:19.590Z,46464
2016-03-10T07:31:33.731Z,46688
2016-03-10T07:31:47.777Z,46816
2016-03-10T07:32:01.984Z,47040
2016-03-10T07:32:16.218Z,47328
2016-03-10T07:32:30.265Z,47520
2016-03-10T07:32:44.749Z,47712
2016-03-10T07:32:59.267Z,47744
2016-03-10T07:33:13.329Z,47712
2016-03-10T07:33:27.579Z,47680
2016-03-10T07:33:41.501Z,47616
2016-03-10T07:33:56.157Z,47552
2016-03-10T07:34:10.536Z,47520
2016-03-10T07:34:24.740Z,47616
2016-03-10T07:34:39.052Z,47744
2016-03-10T07:34:53.083Z,47936
2016-03-10T07:35:07.085Z,48032
2016-03-10T07:35:20.413Z,48096
2016-03-10T07:35:34.413Z,48096
2016-03-10T07:35:48.679Z,48064
2016-03-10T07:36:03.104Z,47936
2016-03-10T07:36:17.229Z,47808
2016-03-10T07:36:31.260Z,47744
2016-03-10T07:36:45.713Z,47712
2016-03-10T07:36:59.856Z,47776
2016-03-10T07:37:28.653Z,48224
2016-03-10T07:37:43.059Z,48480
2016-03-10T07:37:57.156Z,48832
2016-03-10T07:38:11.281Z,49280
2016-03-10T07:38:25.265Z,49536
2016-03-10T07:38:39.562Z,49728
2016-03-10T07:38:53.546Z,49984
2016-03-10T07:39:08.003Z,50240
2016-03-10T07:39:22.190Z,50464
2016-03-10T07:39:36.393Z,50624
2016-03-10T07:39:50.534Z,50848
2016-03-10T07:40:04.989Z,50912
2016-03-10T07:40:18.958Z,50944
2016-03-10T07:40:47.020Z,51072
2016-03-10T07:41:00.320Z,51072
2016-03-10T07:41:14.336Z,51168
2016-03-10T07:41:29.008Z,51296
2016-03-10T07:41:43.148Z,51392
2016-03-10T07:41:57.573Z,51552
2016-03-10T07:42:12.042Z,51712
2016-03-10T07:42:25.557Z,51840
2016-03-10T07:42:39.807Z,51904
2016-03-10T07:43:08.092Z,51712
2016-03-10T07:43:25.201Z,51616
2016-03-10T07:43:39.123Z,51680
2016-03-10T07:43:53.092Z,51776
2016-03-10T07:44:07.297Z,51904
2016-03-10T07:44:21.281Z,52224
2016-03-10T07:44:35.812Z,52480
2016-03-10T07:44:50.000Z,52864
2016-03-10T07:45:18.237Z,53600
2016-03-10T07:45:32.440Z,53856
2016-03-10T07:45:46.940Z,53984
2016-03-10T07:46:00.412Z,54016
2016-03-10T07:46:15.006Z,54048
2016-03-10T07:46:29.240Z,54080
2016-03-10T07:46:43.490Z,54176
2016-03-10T07:46:57.597Z,54784
2016-03-10T07:47:11.050Z,54944
2016-03-10T07:47:25.019Z,55104
2016-03-10T07:47:39.347Z,55520
2016-03-10T07:47:53.628Z,55872
2016-03-10T07:48:07.076Z,56192
2016-03-10T07:48:20.404Z,56448
2016-03-10T07:48:34.560Z,56608
2016-03-10T07:48:48.545Z,56800
2016-03-10T07:49:02.589Z,56896
2016-03-10T07:49:16.714Z,56896
2016-03-10T07:49:30.745Z,56704
2016-03-10T07:49:45.057Z,56448
2016-03-10T07:49:59.038Z,56288
2016-03-10T07:50:13.428Z,56096
2016-03-10T07:50:27.538Z,55968
2016-03-10T07:50:41.616Z,55872
2016-03-10T07:50:55.663Z,55904
2016-03-10T07:51:09.972Z,56000
2016-03-10T07:51:24.238Z,56032
2016-03-10T07:51:38.191Z,56096
2016-03-10T07:51:52.316Z,56320
2016-03-10T07:52:06.893Z,56448
2016-03-10T07:52:20.987Z,56576
2016-03-10T07:52:35.221Z,56672
2016-03-10T07:52:49.253Z,56736
2016-03-10T07:53:03.129Z,56864
2016-03-10T07:53:17.129Z,57088
2016-03-10T07:53:31.363Z,57344
2016-03-10T07:53:45.379Z,57536
2016-03-10T07:54:00.097Z,57856
2016-03-10T07:54:14.613Z,58336
2016-03-10T07:54:28.722Z,58464
2016-03-10T07:54:43.019Z,58432
2016-03-10T07:54:56.379Z,58528
2016-03-10T07:55:10.519Z,58592
2016-03-10T07:55:23.832Z,58656
2016-03-10T07:55:38.769Z,58816
2016-03-10T07:55:52.941Z,58944
2016-03-10T07:56:06.973Z,58976
2016-03-10T07:56:21.145Z,59040
2016-03-10T07:56:36.051Z,59136
2016-03-10T07:56:50.005Z,59168
2016-03-10T07:57:04.396Z,59232
2016-03-10T07:57:21.881Z,59424
2016-03-10T07:57:36.427Z,59616
2016-03-10T07:58:04.790Z,59712
2016-03-10T07:58:18.868Z,59552
2016-03-10T07:58:32.837Z,59488
2016-03-10T07:58:45.868Z,59360
2016-03-10T07:58:59.885Z,59104
2016-03-10T07:59:13.244Z,58976
2016-03-10T07:59:27.135Z,59104
2016-03-10T07:59:55.181Z,59808
2016-03-10T08:00:12.293Z,60320
2016-03-10T08:00:26.699Z,60640
2016-03-10T08:00:40.918Z,60960
2016-03-10T08:00:55.121Z,61184
2016-03-10T08:01:09.060Z,61184
2016-03-10T08:01:23.623Z,60896
2016-03-10T08:01:37.857Z,60416
2016-03-10T08:01:52.154Z,60064
2016-03-10T08:02:06.187Z,59616
2016-03-10T08:02:20.250Z,59200
2016-03-10T08:02:34.297Z,59040
2016-03-10T08:02:48.406Z,58976
2016-03-10T08:03:02.253Z,59104
2016-03-10T08:03:16.175Z,59328
2016-03-10T08:03:30.472Z,59616
2016-03-10T08:03:44.597Z,59968
2016-03-10T08:03:58.755Z,60192
2016-03-10T08:04:13.099Z,60384
2016-03-10T08:04:27.458Z,62176
2016-03-10T08:04:41.661Z,61920
2016-03-10T08:04:55.677Z,61568
2016-03-10T08:05:09.523Z,61280
2016-03-10T08:05:23.663Z,61056
2016-03-10T08:05:37.726Z,60896
2016-03-10T08:05:51.694Z,60992
2016-03-10T08:06:05.776Z,61408
2016-03-10T08:06:19.901Z,61728
2016-03-10T08:06:34.432Z,62016
2016-03-10T08:06:48.651Z,62240
2016-03-10T08:07:02.590Z,61984
2016-03-10T08:07:16.637Z,62016
2016-03-10T08:07:29.934Z,61952
2016-03-10T08:07:43.996Z,61792
2016-03-10T08:07:58.045Z,61568
2016-03-10T08:08:12.170Z,61472
2016-03-10T08:08:25.576Z,61568
2016-03-10T08:08:40.233Z,61824
2016-03-10T08:08:54.123Z,62048
2016-03-10T08:09:08.283Z,62240
2016-03-10T08:09:22.220Z,62432
2016-03-10T08:09:36.236Z,62560
2016-03-10T08:09:50.189Z,62592
2016-03-10T08:10:04.082Z,62624
2016-03-10T08:10:18.598Z,62688
2016-03-10T08:10:33.020Z,62688
2016-03-10T08:10:46.864Z,62688
2016-03-10T08:11:01.054Z,62752
2016-03-10T08:11:14.992Z,62752
2016-03-10T08:11:29.023Z,62496
2016-03-10T08:11:42.914Z,62240
2016-03-10T08:11:56.976Z,62112
2016-03-10T08:12:11.119Z,62048
2016-03-10T08:12:25.822Z,61984
2016-03-10T08:12:40.103Z,61952
2016-03-10T08:13:08.465Z,62336
2016-03-10T08:13:22.450Z,62688
2016-03-10T08:13:36.481Z,63104
2016-03-10T08:13:51.090Z,63488
2016-03-10T08:14:05.389Z,63744
2016-03-10T08:14:19.358Z,63968
2016-03-10T08:14:34.124Z,64224
